createdAt,value
2018-08-20T00:01:44.415Z,59.80
2018-08-20T00:04:13.763Z,59.80
2018-08-20T00:06:53.406Z,59.70
2018-08-20T00:09:31.285Z,59.80
2018-08-20T00:12:00.566Z,59.90
2018-08-20T00:14:29.847Z,60.10
2018-08-20T00:16:59.468Z,60.10
2018-08-20T00:19:28.939Z,60.00
2018-08-20T00:21:58.336Z,59.90
2018-08-20T00:24:27.674Z,60.90
2018-08-20T00:26:59.258Z,60.30
2018-08-20T00:29:28.491Z,60.40
2018-08-20T00:31:57.803Z,60.30
2018-08-20T00:34:27.102Z,60.30
2018-08-20T00:36:56.355Z,61.20
2018-08-20T00:39:25.604Z,60.60
2018-08-20T00:41:54.803Z,60.60
2018-08-20T00:44:24.049Z,60.70
2018-08-20T00:46:53.318Z,60.70
2018-08-20T00:49:22.592Z,60.70
2018-08-20T00:51:51.843Z,60.80
2018-08-20T00:54:21.120Z,60.90
2018-08-20T00:56:50.362Z,60.90
2018-08-20T00:59:19.690Z,60.80
2018-08-20T01:01:48.951Z,60.70
2018-08-20T01:04:18.171Z,60.60
2018-08-20T01:06:47.373Z,60.80
2018-08-20T01:09:16.622Z,61.20
2018-08-20T01:11:45.887Z,61.30
2018-08-20T01:14:15.136Z,61.30
2018-08-20T01:16:44.432Z,61.30
2018-08-20T01:19:13.701Z,61.30
2018-08-20T01:21:42.943Z,61.30
2018-08-20T01:24:12.264Z,61.30
2018-08-20T01:26:41.488Z,61.20
2018-08-20T01:29:10.868Z,61.20
2018-08-20T01:31:40.136Z,61.20
2018-08-20T01:34:09.709Z,61.20
2018-08-20T01:36:38.927Z,61.00
2018-08-20T01:39:08.259Z,61.00
2018-08-20T01:41:37.432Z,61.20
2018-08-20T01:44:06.839Z,61.30
2018-08-20T01:46:36.046Z,61.30
2018-08-20T01:49:05.335Z,61.40
2018-08-20T01:51:34.606Z,61.30
2018-08-20T01:54:04.071Z,61.40
2018-08-20T01:56:33.323Z,61.50
2018-08-20T01:59:02.612Z,61.60
2018-08-20T02:01:32.019Z,61.80
2018-08-20T02:04:01.341Z,61.80
2018-08-20T02:06:30.575Z,61.80
2018-08-20T02:08:59.942Z,62.40
2018-08-20T02:11:29.179Z,61.40
2018-08-20T02:13:59.275Z,61.50
2018-08-20T02:16:28.510Z,61.50
2018-08-20T02:18:57.851Z,61.60
2018-08-20T02:21:27.179Z,61.50
2018-08-20T02:23:57.287Z,61.50
2018-08-20T02:26:26.541Z,61.50
2018-08-20T02:28:55.847Z,61.50
2018-08-20T02:31:25.089Z,61.70
2018-08-20T02:33:54.397Z,61.90
2018-08-20T02:36:23.667Z,62.00
2018-08-20T02:38:53.010Z,62.00
2018-08-20T02:41:22.268Z,62.00
2018-08-20T02:43:51.599Z,62.10
2018-08-20T02:46:31.663Z,62.30
2018-08-20T02:49:01.011Z,62.40
2018-08-20T02:51:30.221Z,63.10
2018-08-20T02:53:59.511Z,62.60
2018-08-20T02:56:28.744Z,62.70
2018-08-20T02:58:58.001Z,62.80
2018-08-20T03:01:27.280Z,62.80
2018-08-20T03:03:57.582Z,62.70
2018-08-20T03:06:26.836Z,62.70
2018-08-20T03:08:56.132Z,62.80
2018-08-20T03:11:25.339Z,63.00
2018-08-20T03:13:54.776Z,63.10
2018-08-20T03:16:23.995Z,63.10
2018-08-20T03:18:53.369Z,63.20
2018-08-20T03:21:22.712Z,63.30
2018-08-20T03:23:51.931Z,63.30
2018-08-20T03:26:21.233Z,63.30
2018-08-20T03:28:50.923Z,63.30
2018-08-20T03:31:20.187Z,63.40
2018-08-20T03:33:49.435Z,63.40
2018-08-20T03:36:18.772Z,63.50
2018-08-20T03:38:48.024Z,63.60
2018-08-20T03:41:17.374Z,63.60
2018-08-20T03:43:46.627Z,63.60
2018-08-20T03:46:16.016Z,63.60
2018-08-20T03:48:45.284Z,63.70
2018-08-20T03:51:14.560Z,63.70
2018-08-20T03:53:43.866Z,63.60
2018-08-20T03:56:13.135Z,63.80
2018-08-20T03:58:42.440Z,63.80
2018-08-20T04:01:11.742Z,63.80
2018-08-20T04:03:40.973Z,63.90
2018-08-20T04:06:10.260Z,63.90
2018-08-20T04:08:39.473Z,63.90
2018-08-20T04:11:08.767Z,63.70
2018-08-20T04:13:38.028Z,63.80
2018-08-20T04:16:07.304Z,63.90
2018-08-20T04:18:36.583Z,63.80
2018-08-20T04:21:05.923Z,63.70
2018-08-20T04:23:35.194Z,63.90
2018-08-20T04:26:04.559Z,64.00
2018-08-20T04:28:33.771Z,64.40
2018-08-20T04:31:03.023Z,64.30
2018-08-20T04:33:32.295Z,64.30
2018-08-20T04:36:01.647Z,64.30
2018-08-20T04:38:30.937Z,64.70
2018-08-20T04:41:00.271Z,64.60
2018-08-20T04:43:29.514Z,64.60
2018-08-20T04:45:58.842Z,65.50
2018-08-20T04:48:28.042Z,65.40
2018-08-20T04:50:57.386Z,64.90
2018-08-20T04:53:26.568Z,64.90
2018-08-20T04:55:55.853Z,65.10
2018-08-20T04:58:25.087Z,65.50
2018-08-20T05:00:54.355Z,65.60
2018-08-20T05:03:23.667Z,65.90
2018-08-20T05:05:52.892Z,66.90
2018-08-20T05:08:22.155Z,66.00
2018-08-20T05:10:51.416Z,66.30
2018-08-20T05:13:20.675Z,66.30
2018-08-20T05:15:50.003Z,66.50
2018-08-20T05:18:19.243Z,66.60
2018-08-20T05:20:48.448Z,66.60
2018-08-20T05:23:17.743Z,66.50
2018-08-20T05:25:47.030Z,66.80
2018-08-20T05:28:16.310Z,66.70
2018-08-20T05:30:45.691Z,66.70
2018-08-20T05:33:15.006Z,66.00
2018-08-20T05:35:44.211Z,65.00
2018-08-20T05:38:13.516Z,64.90
2018-08-20T05:40:42.756Z,64.20
2018-08-20T05:43:12.087Z,63.80
2018-08-20T05:45:41.289Z,63.40
2018-08-20T05:48:10.652Z,63.00
2018-08-20T05:50:39.883Z,62.80
2018-08-20T05:53:09.243Z,62.60
2018-08-20T05:55:38.500Z,62.30
2018-08-20T05:58:07.747Z,62.10
2018-08-20T06:00:37.211Z,62.00
2018-08-20T06:03:06.628Z,61.90
2018-08-20T06:05:35.897Z,61.70
2018-08-20T06:08:05.213Z,61.30
2018-08-20T06:10:34.679Z,61.20
2018-08-20T06:13:04.075Z,60.70
2018-08-20T06:15:33.381Z,60.30
2018-08-20T06:18:02.636Z,60.00
2018-08-20T06:20:31.989Z,59.80
2018-08-20T06:23:01.307Z,59.70
2018-08-20T06:25:30.593Z,59.40
2018-08-20T06:27:59.871Z,59.20
2018-08-20T06:30:29.090Z,59.00
2018-08-20T06:32:58.436Z,58.90
2018-08-20T06:35:27.715Z,58.70
2018-08-20T06:37:57.012Z,58.40
2018-08-20T06:40:26.318Z,58.30
2018-08-20T06:42:55.679Z,58.00
2018-08-20T06:45:24.908Z,57.70
2018-08-20T06:47:54.195Z,57.40
2018-08-20T06:50:23.423Z,57.30
2018-08-20T06:52:52.699Z,56.90
2018-08-20T06:55:21.958Z,56.90
2018-08-20T06:57:51.277Z,56.90
2018-08-20T07:00:20.523Z,56.60
2018-08-20T07:02:49.788Z,56.40
2018-08-20T07:05:19.170Z,56.20
2018-08-20T07:07:48.547Z,56.00
2018-08-20T07:10:17.888Z,55.90
2018-08-20T07:12:47.219Z,55.70
2018-08-20T07:15:16.623Z,55.60
2018-08-20T07:17:45.914Z,55.40
2018-08-20T07:20:16.271Z,55.40
2018-08-20T07:22:45.611Z,55.20
2018-08-20T07:25:14.947Z,55.20
2018-08-20T07:27:44.238Z,55.10
2018-08-20T07:30:13.471Z,55.00
2018-08-20T07:32:42.752Z,55.00
2018-08-20T07:35:12.029Z,55.10
2018-08-20T07:37:41.370Z,55.10
2018-08-20T07:40:10.720Z,54.90
2018-08-20T07:42:40.010Z,54.80
2018-08-20T07:45:09.344Z,54.80
2018-08-20T07:47:38.674Z,54.80
2018-08-20T07:50:08.060Z,54.80
2018-08-20T07:52:37.404Z,54.50
2018-08-20T07:55:06.639Z,54.30
2018-08-20T07:57:35.895Z,54.10
2018-08-20T08:00:06.699Z,54.10
2018-08-20T08:02:36.111Z,54.20
2018-08-20T08:05:06.125Z,54.00
2018-08-20T08:07:35.558Z,53.70
2018-08-20T08:10:06.339Z,53.60
2018-08-20T08:12:35.697Z,53.40
2018-08-20T08:15:05.188Z,53.10
2018-08-20T08:17:34.530Z,53.30
2018-08-20T08:20:03.947Z,53.20
2018-08-20T08:22:33.535Z,53.00
2018-08-20T08:25:02.847Z,52.70
2018-08-20T08:27:32.120Z,52.40
2018-08-20T08:30:01.407Z,52.00
2018-08-20T08:32:30.831Z,51.70
2018-08-20T08:35:00.096Z,51.30
2018-08-20T08:37:29.320Z,51.20
2018-08-20T08:39:58.555Z,50.70
2018-08-20T08:42:27.767Z,50.80
2018-08-20T08:44:57.043Z,50.70
2018-08-20T08:47:26.257Z,50.40
2018-08-20T08:49:55.671Z,50.20
2018-08-20T08:52:24.947Z,50.00
2018-08-20T08:54:54.249Z,49.90
2018-08-20T08:57:23.523Z,49.60
2018-08-20T08:59:52.900Z,49.30
2018-08-20T09:02:22.137Z,49.20
2018-08-20T09:04:51.496Z,49.00
2018-08-20T09:07:20.731Z,48.80
2018-08-20T09:09:50.004Z,48.60
2018-08-20T09:12:19.423Z,48.70
2018-08-20T09:14:49.039Z,49.20
2018-08-20T09:17:18.247Z,48.50
2018-08-20T09:19:47.505Z,48.40
2018-08-20T09:22:16.767Z,48.50
2018-08-20T09:24:46.083Z,48.30
2018-08-20T09:27:15.283Z,48.20
2018-08-20T09:29:44.579Z,48.10
2018-08-20T09:32:13.903Z,48.00
2018-08-20T09:34:43.212Z,47.90
2018-08-20T09:37:12.615Z,47.80
2018-08-20T09:39:41.940Z,47.60
2018-08-20T09:42:11.195Z,47.40
2018-08-20T09:44:40.555Z,47.20
2018-08-20T09:47:09.903Z,47.10
2018-08-20T09:49:39.222Z,47.10
2018-08-20T09:52:08.406Z,47.00
2018-08-20T09:54:37.684Z,46.80
2018-08-20T09:57:06.929Z,46.50
2018-08-20T09:59:36.229Z,46.20
2018-08-20T10:02:05.559Z,46.40
2018-08-20T10:04:34.863Z,45.70
2018-08-20T10:07:04.142Z,45.60
2018-08-20T10:09:33.440Z,45.30
2018-08-20T10:12:02.780Z,45.10
2018-08-20T10:14:32.067Z,44.90
2018-08-20T10:17:01.378Z,44.70
2018-08-20T10:19:30.788Z,44.60
2018-08-20T10:22:00.043Z,44.50
2018-08-20T10:24:29.351Z,44.50
2018-08-20T10:26:58.657Z,44.60
2018-08-20T10:29:27.924Z,44.70
2018-08-20T10:31:57.177Z,44.80
2018-08-20T10:34:26.420Z,45.00
2018-08-20T10:36:55.708Z,45.10
2018-08-20T10:39:24.964Z,45.10
2018-08-20T10:41:54.219Z,44.90
2018-08-20T10:44:23.419Z,44.90
2018-08-20T10:46:52.719Z,44.70
2018-08-20T10:49:21.921Z,44.60
2018-08-20T10:51:51.156Z,44.30
2018-08-20T10:54:20.396Z,44.00
2018-08-20T10:56:49.782Z,43.60
2018-08-20T10:59:19.009Z,43.40
2018-08-20T11:01:48.279Z,43.30
2018-08-20T11:04:17.613Z,43.30
2018-08-20T11:06:47.183Z,43.40
2018-08-20T11:09:16.392Z,43.00
2018-08-20T11:11:45.674Z,42.80
2018-08-20T11:14:14.992Z,42.30
2018-08-20T11:16:44.291Z,42.00
2018-08-20T11:19:13.551Z,41.70
2018-08-20T11:21:42.782Z,41.50
2018-08-20T11:24:12.024Z,41.10
2018-08-20T11:26:41.339Z,40.80
2018-08-20T11:29:10.926Z,40.60
2018-08-20T11:31:40.430Z,40.40
2018-08-20T11:34:09.636Z,40.60
2018-08-20T11:36:39.372Z,39.50
2018-08-20T11:39:09.299Z,38.80
2018-08-20T11:41:38.702Z,38.60
2018-08-20T11:44:08.069Z,38.20
2018-08-20T11:46:37.266Z,37.90
2018-08-20T11:49:06.539Z,37.80
2018-08-20T11:51:35.838Z,37.60
2018-08-20T11:54:05.055Z,38.20
2018-08-20T11:56:34.299Z,37.30
2018-08-20T11:59:03.612Z,37.20
2018-08-20T12:01:32.875Z,37.20
2018-08-20T12:04:02.100Z,36.80
2018-08-20T12:06:31.344Z,36.80
2018-08-20T12:09:00.580Z,37.00
2018-08-20T12:11:29.843Z,37.00
2018-08-20T12:13:59.156Z,36.90
2018-08-20T12:16:28.432Z,37.00
2018-08-20T12:18:57.739Z,37.20
2018-08-20T12:21:26.987Z,37.50
2018-08-20T12:23:56.259Z,37.60
2018-08-20T12:26:25.571Z,37.40
2018-08-20T12:28:54.872Z,37.00
2018-08-20T12:31:24.147Z,36.70
2018-08-20T12:33:53.384Z,36.50
2018-08-20T12:36:22.691Z,36.30
2018-08-20T12:38:51.926Z,35.80
2018-08-20T12:41:21.086Z,35.80
2018-08-20T12:43:50.289Z,35.20
2018-08-20T12:46:20.403Z,34.80
2018-08-20T12:48:52.231Z,34.50
2018-08-20T12:51:22.346Z,34.30
2018-08-20T12:53:51.603Z,34.10
2018-08-20T12:56:20.872Z,34.20
2018-08-20T12:58:51.128Z,34.10
2018-08-20T13:01:20.475Z,34.00
2018-08-20T13:03:50.406Z,34.10
2018-08-20T13:06:19.720Z,34.30
2018-08-20T13:08:49.126Z,34.70
2018-08-20T13:11:18.356Z,35.10
2018-08-20T13:13:47.672Z,35.20
2018-08-20T13:16:16.910Z,34.90
2018-08-20T13:18:46.221Z,34.40
2018-08-20T13:21:15.453Z,34.40
2018-08-20T13:23:44.687Z,34.10
2018-08-20T13:26:13.995Z,33.80
2018-08-20T13:28:43.258Z,33.90
2018-08-20T13:31:12.577Z,34.10
2018-08-20T13:33:41.864Z,34.10
2018-08-20T13:36:11.095Z,34.00
2018-08-20T13:38:40.467Z,34.10
2018-08-20T13:41:09.799Z,34.30
2018-08-20T13:43:39.096Z,34.30
2018-08-20T13:46:08.403Z,34.00
2018-08-20T13:48:37.615Z,33.80
2018-08-20T13:51:06.972Z,33.40
2018-08-20T13:53:36.346Z,33.70
2018-08-20T13:56:05.626Z,32.90
2018-08-20T13:58:35.027Z,32.80
2018-08-20T14:01:04.405Z,32.90
2018-08-20T14:03:33.655Z,33.00
2018-08-20T14:06:03.054Z,32.90
2018-08-20T14:08:32.344Z,33.00
2018-08-20T14:11:01.661Z,33.00
2018-08-20T14:13:31.002Z,33.00
2018-08-20T14:16:00.327Z,33.80
2018-08-20T14:18:29.639Z,33.50
2018-08-20T14:21:12.101Z,33.70
2018-08-20T14:23:44.343Z,33.90
2018-08-20T14:26:13.848Z,34.30
2018-08-20T14:28:43.161Z,34.50
2018-08-20T14:31:12.437Z,34.70
2018-08-20T14:33:41.795Z,34.70
2018-08-20T14:36:11.187Z,34.90
2018-08-20T14:38:40.399Z,35.10
2018-08-20T14:41:09.708Z,35.30
2018-08-20T14:43:39.368Z,35.20
2018-08-20T14:46:13.805Z,35.20
2018-08-20T14:48:43.112Z,35.10
2018-08-20T14:51:12.450Z,35.10
2018-08-20T14:53:41.827Z,35.30
2018-08-20T14:56:11.107Z,35.30
2018-08-20T14:58:40.407Z,35.60
2018-08-20T15:01:09.665Z,35.10
2018-08-20T15:03:38.978Z,35.70
2018-08-20T15:06:08.319Z,35.60
2018-08-20T15:08:39.186Z,35.60
2018-08-20T15:11:08.544Z,35.60
2018-08-20T15:13:37.788Z,35.70
2018-08-20T15:16:07.312Z,35.80
2018-08-20T15:18:36.535Z,36.00
2018-08-20T15:21:05.801Z,35.90
2018-08-20T15:23:35.141Z,36.20
2018-08-20T15:26:04.331Z,36.50
2018-08-20T15:28:33.666Z,36.50
2018-08-20T15:31:02.959Z,36.70
2018-08-20T15:33:32.196Z,36.90
2018-08-20T15:36:01.516Z,37.00
2018-08-20T15:38:30.816Z,37.10
2018-08-20T15:40:59.980Z,37.20
2018-08-20T15:43:29.252Z,37.50
2018-08-20T15:45:58.576Z,37.50
2018-08-20T15:48:27.796Z,37.60
2018-08-20T15:50:57.060Z,37.80
2018-08-20T15:53:26.284Z,38.00
2018-08-20T15:55:55.443Z,38.20
2018-08-20T15:58:24.713Z,38.40
2018-08-20T16:00:53.985Z,38.50
2018-08-20T16:03:23.159Z,38.60
2018-08-20T16:05:52.485Z,37.90
2018-08-20T16:08:21.726Z,38.50
2018-08-20T16:10:50.964Z,38.40
2018-08-20T16:13:20.269Z,38.40
2018-08-20T16:15:49.575Z,38.50
2018-08-20T16:18:18.751Z,38.80
2018-08-20T16:20:47.976Z,39.20
2018-08-20T16:23:17.144Z,39.40
2018-08-20T16:25:46.437Z,39.60
2018-08-20T16:28:15.724Z,39.80
2018-08-20T16:30:45.059Z,39.90
2018-08-20T16:33:14.337Z,40.90
2018-08-20T16:35:43.643Z,40.50
2018-08-20T16:38:12.918Z,40.70
2018-08-20T16:40:42.235Z,40.90
2018-08-20T16:43:11.482Z,41.20
2018-08-20T16:45:40.807Z,41.50
2018-08-20T16:48:10.063Z,41.90
2018-08-20T16:50:39.394Z,42.20
2018-08-20T16:53:08.628Z,42.30
2018-08-20T16:55:37.902Z,42.70
2018-08-20T16:58:07.095Z,43.00
2018-08-20T17:00:36.394Z,43.50
2018-08-20T17:03:09.396Z,43.70
2018-08-20T17:05:43.637Z,43.70
2018-08-20T17:08:18.375Z,43.90
2018-08-20T17:10:47.807Z,44.20
2018-08-20T17:13:17.028Z,44.30
2018-08-20T17:15:46.339Z,44.60
2018-08-20T17:18:15.552Z,44.80
2018-08-20T17:20:44.883Z,45.10
2018-08-20T17:23:17.130Z,45.30
2018-08-20T17:25:46.480Z,45.40
2018-08-20T17:28:19.411Z,45.60
2018-08-20T17:30:49.032Z,45.70
2018-08-20T17:33:18.263Z,45.80
2018-08-20T17:35:47.500Z,46.00
2018-08-20T17:38:16.948Z,46.10
2018-08-20T17:40:46.295Z,46.10
2018-08-20T17:43:15.543Z,46.10
2018-08-20T17:45:44.935Z,46.10
2018-08-20T17:48:25.208Z,46.20
2018-08-20T17:50:54.431Z,46.30
2018-08-20T17:53:23.623Z,46.30
2018-08-20T17:55:52.875Z,46.50
2018-08-20T17:58:22.072Z,46.40
2018-08-20T18:00:53.150Z,46.50
2018-08-20T18:03:26.456Z,46.40
2018-08-20T18:06:01.301Z,46.40
2018-08-20T18:08:31.657Z,46.50
2018-08-20T18:11:01.256Z,46.70
2018-08-20T18:13:45.567Z,46.90
2018-08-20T18:16:18.949Z,47.00
2018-08-20T18:18:50.528Z,47.20
2018-08-20T18:21:20.045Z,47.40
2018-08-20T18:23:49.406Z,47.60
2018-08-20T18:26:18.601Z,47.70
2018-08-20T18:28:51.967Z,48.60
2018-08-20T18:31:26.817Z,48.50
2018-08-20T18:33:56.289Z,48.90
2018-08-20T18:36:26.939Z,49.00
2018-08-20T18:39:00.102Z,49.30
2018-08-20T18:42:10.384Z,49.40
2018-08-20T18:44:39.740Z,49.40
2018-08-20T18:47:10.425Z,49.70
2018-08-20T18:49:47.075Z,50.00
2018-08-20T18:52:16.696Z,50.30
2018-08-20T18:54:55.507Z,50.30
2018-08-20T18:57:28.522Z,50.40
2018-08-20T18:59:59.932Z,50.50
2018-08-20T19:02:40.375Z,50.80
2018-08-20T19:05:18.142Z,50.90
2018-08-20T19:07:47.741Z,51.20
2018-08-20T19:10:27.780Z,51.30
2018-08-20T19:12:57.206Z,51.20
2018-08-20T19:15:40.811Z,51.20
2018-08-20T19:18:12.116Z,51.10
2018-08-20T19:20:42.355Z,51.30
2018-08-20T19:23:11.683Z,51.60
2018-08-20T19:25:41.484Z,51.70
2018-08-20T19:28:15.952Z,52.00
2018-08-20T19:30:45.305Z,52.30
2018-08-20T19:33:19.632Z,52.20
2018-08-20T19:35:48.955Z,52.40
2018-08-20T19:38:18.364Z,52.70
2018-08-20T19:40:48.045Z,53.70
2018-08-20T19:43:17.269Z,53.20
2018-08-20T19:45:46.570Z,53.20
2018-08-20T19:48:15.846Z,53.60
2018-08-20T19:50:45.191Z,54.00
2018-08-20T19:53:23.303Z,54.00
2018-08-20T19:55:53.132Z,54.10
2018-08-20T19:58:31.405Z,54.40
2018-08-20T20:01:09.860Z,54.60
2018-08-20T20:03:42.547Z,54.80
2018-08-20T20:06:11.889Z,55.00
2018-08-20T20:08:41.172Z,55.20
2018-08-20T20:11:17.551Z,55.40
2018-08-20T20:13:48.796Z,55.50
2018-08-20T20:16:18.079Z,55.80
2018-08-20T20:18:47.331Z,55.80
2018-08-20T20:21:16.742Z,56.10
2018-08-20T20:23:45.986Z,56.60
2018-08-20T20:26:15.275Z,56.50
2018-08-20T20:28:44.620Z,56.60
2018-08-20T20:31:13.964Z,56.70
2018-08-20T20:33:43.342Z,56.70
2018-08-20T20:36:16.815Z,56.80
2018-08-20T20:38:46.758Z,57.00
2018-08-20T20:41:15.952Z,57.10
2018-08-20T20:43:45.275Z,57.30
2018-08-20T20:46:14.592Z,57.40
2018-08-20T20:48:43.834Z,57.50
2018-08-20T20:51:13.222Z,57.80
2018-08-20T20:53:42.534Z,58.10
2018-08-20T20:56:11.947Z,58.60
2018-08-20T20:58:41.580Z,58.10
2018-08-20T21:01:12.259Z,58.20
2018-08-20T21:03:41.572Z,58.30
2018-08-20T21:06:10.964Z,58.40
2018-08-20T21:08:45.196Z,58.60
2018-08-20T21:11:15.379Z,58.60
2018-08-20T21:13:45.147Z,58.80
2018-08-20T21:16:17.747Z,58.80
2018-08-20T21:18:55.746Z,59.10
2018-08-20T21:21:25.767Z,59.10
2018-08-20T21:23:57.088Z,59.20
2018-08-20T21:26:26.412Z,59.40
2018-08-20T21:28:56.087Z,59.50
2018-08-20T21:31:26.675Z,59.70
2018-08-20T21:33:57.551Z,59.80
2018-08-20T21:36:26.842Z,59.70
2018-08-20T21:38:56.100Z,59.80
2018-08-20T21:41:28.111Z,60.00
2018-08-20T21:43:57.332Z,60.00
2018-08-20T21:46:26.621Z,60.10
2018-08-20T21:48:55.927Z,60.20
2018-08-20T21:51:27.116Z,60.10
2018-08-20T21:53:56.391Z,60.20
2018-08-20T21:56:26.600Z,60.30
2018-08-20T21:58:55.850Z,60.30
2018-08-20T22:01:25.132Z,60.30
2018-08-20T22:03:54.463Z,60.30
2018-08-20T22:06:23.759Z,60.60
2018-08-20T22:08:52.998Z,60.60
2018-08-20T22:11:22.287Z,60.60
2018-08-20T22:13:51.562Z,60.80
2018-08-20T22:16:22.394Z,60.80
2018-08-20T22:18:56.444Z,60.80
2018-08-20T22:21:25.936Z,60.80
2018-08-20T22:24:01.507Z,60.80
2018-08-20T22:26:30.963Z,60.90
2018-08-20T22:29:00.720Z,60.90
2018-08-20T22:31:29.963Z,60.80
2018-08-20T22:34:04.292Z,60.80
2018-08-20T22:36:33.778Z,60.80
2018-08-20T22:39:05.256Z,60.90
2018-08-20T22:41:34.535Z,61.10
2018-08-20T22:44:03.880Z,61.20
2018-08-20T22:46:33.151Z,61.70
2018-08-20T22:49:02.474Z,61.10
2018-08-20T22:51:31.855Z,60.90
2018-08-20T22:54:02.191Z,61.00
2018-08-20T22:56:33.229Z,61.10
2018-08-20T22:59:07.956Z,61.40
2018-08-20T23:01:37.357Z,61.50
2018-08-20T23:04:06.923Z,61.60
2018-08-20T23:06:36.259Z,61.60
2018-08-20T23:09:21.505Z,61.60
2018-08-20T23:11:50.732Z,61.50
2018-08-20T23:14:19.959Z,61.60
2018-08-20T23:16:51.360Z,61.80
2018-08-20T23:19:20.703Z,61.90
2018-08-20T23:21:52.980Z,62.20
2018-08-20T23:24:22.277Z,62.20
2018-08-20T23:26:51.521Z,62.30
2018-08-20T23:29:20.889Z,62.50
2018-08-20T23:31:50.140Z,62.40
2018-08-20T23:34:19.568Z,62.50
2018-08-20T23:36:48.923Z,62.40
2018-08-20T23:39:18.521Z,62.50
2018-08-20T23:41:47.788Z,62.70
2018-08-20T23:44:17.871Z,62.70
2018-08-20T23:46:48.655Z,63.00
2018-08-20T23:49:18.067Z,64.10
2018-08-20T23:51:47.557Z,63.70
2018-08-20T23:54:16.886Z,63.90
2018-08-20T23:56:46.164Z,65.00
2018-08-20T23:59:15.394Z,64.30
